sensor_id;sensor_type;location;lat;lon;timestamp;P1;durP1;ratioP1;P2;durP2;ratioP2
18997;SDS011;9632;51.018;4.284;2022-12-18T00:01:00;63.40;;;22.90;;
18997;SDS011;9632;51.018;4.284;2022-12-18T00:03:31;62.37;;;22.93;;
18997;SDS011;9632;51.018;4.284;2022-12-18T00:05:59;61.73;;;22.60;;
18997;SDS011;9632;51.018;4.284;2022-12-18T00:08:25;62.83;;;23.03;;
18997;SDS011;9632;51.018;4.284;2022-12-18T00:10:52;62.97;;;23.00;;
18997;SDS011;9632;51.018;4.284;2022-12-18T00:13:17;61.03;;;22.43;;
18997;SDS011;9632;51.018;4.284;2022-12-18T00:15:43;67.17;;;23.77;;
18997;SDS011;9632;51.018;4.284;2022-12-18T00:18:08;59.60;;;22.50;;
18997;SDS011;9632;51.018;4.284;2022-12-18T00:20:38;59.93;;;22.27;;
18997;SDS011;9632;51.018;4.284;2022-12-18T00:23:05;67.13;;;23.70;;
18997;SDS011;9632;51.018;4.284;2022-12-18T00:25:34;62.77;;;22.40;;
18997;SDS011;9632;51.018;4.284;2022-12-18T00:28:01;67.90;;;23.87;;
18997;SDS011;9632;51.018;4.284;2022-12-18T00:30:28;62.57;;;23.33;;
18997;SDS011;9632;51.018;4.284;2022-12-18T00:32:54;61.33;;;22.80;;
18997;SDS011;9632;51.018;4.284;2022-12-18T00:35:20;62.97;;;22.67;;
18997;SDS011;9632;51.018;4.284;2022-12-18T00:37:45;64.93;;;23.63;;
18997;SDS011;9632;51.018;4.284;2022-12-18T00:40:11;60.40;;;21.97;;
18997;SDS011;9632;51.018;4.284;2022-12-18T00:42:37;64.77;;;23.30;;
18997;SDS011;9632;51.018;4.284;2022-12-18T00:45:21;66.07;;;23.27;;
18997;SDS011;9632;51.018;4.284;2022-12-18T00:47:55;67.50;;;23.33;;
18997;SDS011;9632;51.018;4.284;2022-12-18T00:50:22;67.67;;;23.50;;
18997;SDS011;9632;51.018;4.284;2022-12-18T00:52:49;63.80;;;23.20;;
18997;SDS011;9632;51.018;4.284;2022-12-18T00:55:15;64.23;;;23.57;;
18997;SDS011;9632;51.018;4.284;2022-12-18T00:57:41;66.87;;;23.57;;
18997;SDS011;9632;51.018;4.284;2022-12-18T01:00:07;59.93;;;22.27;;
18997;SDS011;9632;51.018;4.284;2022-12-18T01:02:36;63.37;;;23.27;;
18997;SDS011;9632;51.018;4.284;2022-12-18T01:05:02;62.20;;;23.00;;
18997;SDS011;9632;51.018;4.284;2022-12-18T01:07:27;69.50;;;23.83;;
18997;SDS011;9632;51.018;4.284;2022-12-18T01:09:53;59.60;;;21.47;;
18997;SDS011;9632;51.018;4.284;2022-12-18T01:12:19;57.83;;;21.53;;
18997;SDS011;9632;51.018;4.284;2022-12-18T01:14:44;65.50;;;22.97;;
18997;SDS011;9632;51.018;4.284;2022-12-18T01:17:10;62.57;;;22.10;;
18997;SDS011;9632;51.018;4.284;2022-12-18T01:19:36;61.97;;;24.50;;
18997;SDS011;9632;51.018;4.284;2022-12-18T01:22:01;64.43;;;23.00;;
18997;SDS011;9632;51.018;4.284;2022-12-18T01:24:27;59.23;;;23.10;;
18997;SDS011;9632;51.018;4.284;2022-12-18T01:26:52;63.90;;;23.17;;
18997;SDS011;9632;51.018;4.284;2022-12-18T01:29:18;64.27;;;22.23;;
18997;SDS011;9632;51.018;4.284;2022-12-18T01:31:44;57.97;;;22.73;;
18997;SDS011;9632;51.018;4.284;2022-12-18T01:34:09;57.33;;;22.43;;
18997;SDS011;9632;51.018;4.284;2022-12-18T01:36:36;62.13;;;22.40;;
18997;SDS011;9632;51.018;4.284;2022-12-18T01:39:06;65.20;;;22.97;;
18997;SDS011;9632;51.018;4.284;2022-12-18T01:41:33;61.80;;;21.87;;
18997;SDS011;9632;51.018;4.284;2022-12-18T01:49:50;65.30;;;23.67;;
18997;SDS011;9632;51.018;4.284;2022-12-18T01:52:16;61.67;;;22.47;;
18997;SDS011;9632;51.018;4.284;2022-12-18T01:54:43;63.20;;;21.93;;
18997;SDS011;9632;51.018;4.284;2022-12-18T01:57:10;62.30;;;23.07;;
18997;SDS011;9632;51.018;4.284;2022-12-18T01:59:36;63.00;;;22.97;;
18997;SDS011;9632;51.018;4.284;2022-12-18T02:02:02;61.60;;;22.00;;
18997;SDS011;9632;51.018;4.284;2022-12-18T02:04:28;60.20;;;21.80;;
18997;SDS011;9632;51.018;4.284;2022-12-18T02:07:05;61.90;;;22.10;;
18997;SDS011;9632;51.018;4.284;2022-12-18T02:09:46;67.13;;;22.93;;
18997;SDS011;9632;51.018;4.284;2022-12-18T02:12:23;55.10;;;21.67;;
18997;SDS011;9632;51.018;4.284;2022-12-18T02:14:59;57.47;;;21.30;;
18997;SDS011;9632;51.018;4.284;2022-12-18T02:17:38;57.50;;;21.77;;
18997;SDS011;9632;51.018;4.284;2022-12-18T02:20:21;66.47;;;23.53;;
18997;SDS011;9632;51.018;4.284;2022-12-18T02:25:35;65.17;;;22.63;;
18997;SDS011;9632;51.018;4.284;2022-12-18T02:28:25;63.17;;;21.80;;
18997;SDS011;9632;51.018;4.284;2022-12-18T02:30:56;55.67;;;20.97;;
18997;SDS011;9632;51.018;4.284;2022-12-18T02:33:26;62.53;;;22.87;;
18997;SDS011;9632;51.018;4.284;2022-12-18T02:35:53;61.83;;;21.07;;
18997;SDS011;9632;51.018;4.284;2022-12-18T02:38:20;56.13;;;21.80;;
18997;SDS011;9632;51.018;4.284;2022-12-18T02:40:46;63.63;;;22.30;;
18997;SDS011;9632;51.018;4.284;2022-12-18T02:43:14;58.80;;;21.30;;
18997;SDS011;9632;51.018;4.284;2022-12-18T02:45:48;60.57;;;22.30;;
18997;SDS011;9632;51.018;4.284;2022-12-18T02:48:26;58.50;;;21.50;;
18997;SDS011;9632;51.018;4.284;2022-12-18T02:50:58;57.07;;;20.70;;
18997;SDS011;9632;51.018;4.284;2022-12-18T02:56:13;61.60;;;21.93;;
18997;SDS011;9632;51.018;4.284;2022-12-18T03:01:35;65.50;;;22.10;;
18997;SDS011;9632;51.018;4.284;2022-12-18T03:04:05;67.83;;;22.60;;
18997;SDS011;9632;51.018;4.284;2022-12-18T03:06:37;59.47;;;21.57;;
18997;SDS011;9632;51.018;4.284;2022-12-18T03:09:11;58.80;;;20.90;;
18997;SDS011;9632;51.018;4.284;2022-12-18T03:11:44;67.63;;;23.23;;
18997;SDS011;9632;51.018;4.284;2022-12-18T03:14:34;60.27;;;21.20;;
18997;SDS011;9632;51.018;4.284;2022-12-18T03:17:03;56.60;;;20.33;;
18997;SDS011;9632;51.018;4.284;2022-12-18T03:19:33;61.73;;;21.23;;
18997;SDS011;9632;51.018;4.284;2022-12-18T03:22:00;56.87;;;20.63;;
18997;SDS011;9632;51.018;4.284;2022-12-18T03:24:29;63.53;;;21.50;;
18997;SDS011;9632;51.018;4.284;2022-12-18T03:26:58;61.27;;;20.93;;
18997;SDS011;9632;51.018;4.284;2022-12-18T03:29:30;56.23;;;20.80;;
18997;SDS011;9632;51.018;4.284;2022-12-18T03:32:16;53.93;;;20.63;;
18997;SDS011;9632;51.018;4.284;2022-12-18T03:34:50;55.70;;;19.70;;
18997;SDS011;9632;51.018;4.284;2022-12-18T03:37:18;59.70;;;20.83;;
18997;SDS011;9632;51.018;4.284;2022-12-18T03:39:44;58.60;;;20.57;;
18997;SDS011;9632;51.018;4.284;2022-12-18T03:45:02;62.43;;;21.23;;
18997;SDS011;9632;51.018;4.284;2022-12-18T03:47:41;59.47;;;20.77;;
18997;SDS011;9632;51.018;4.284;2022-12-18T03:50:21;54.63;;;20.17;;
18997;SDS011;9632;51.018;4.284;2022-12-18T03:52:54;53.93;;;18.93;;
18997;SDS011;9632;51.018;4.284;2022-12-18T03:55:26;57.90;;;20.23;;
18997;SDS011;9632;51.018;4.284;2022-12-18T03:57:55;50.20;;;18.67;;
18997;SDS011;9632;51.018;4.284;2022-12-18T04:00:22;58.63;;;20.40;;
18997;SDS011;9632;51.018;4.284;2022-12-18T04:02:52;58.93;;;20.37;;
18997;SDS011;9632;51.018;4.284;2022-12-18T04:05:20;49.97;;;18.13;;
18997;SDS011;9632;51.018;4.284;2022-12-18T04:07:48;57.00;;;19.97;;
18997;SDS011;9632;51.018;4.284;2022-12-18T04:10:16;50.97;;;19.23;;
18997;SDS011;9632;51.018;4.284;2022-12-18T04:12:42;57.57;;;20.33;;
18997;SDS011;9632;51.018;4.284;2022-12-18T04:15:08;49.83;;;19.03;;
18997;SDS011;9632;51.018;4.284;2022-12-18T04:17:34;51.57;;;18.90;;
18997;SDS011;9632;51.018;4.284;2022-12-18T04:20:00;51.27;;;18.33;;
18997;SDS011;9632;51.018;4.284;2022-12-18T04:22:26;53.13;;;18.67;;
18997;SDS011;9632;51.018;4.284;2022-12-18T04:24:52;55.77;;;19.13;;
18997;SDS011;9632;51.018;4.284;2022-12-18T04:27:17;53.33;;;18.60;;
18997;SDS011;9632;51.018;4.284;2022-12-18T04:29:43;51.50;;;18.80;;
18997;SDS011;9632;51.018;4.284;2022-12-18T04:32:08;52.23;;;18.23;;
18997;SDS011;9632;51.018;4.284;2022-12-18T04:34:34;55.67;;;18.73;;
18997;SDS011;9632;51.018;4.284;2022-12-18T04:37:00;50.43;;;17.80;;
18997;SDS011;9632;51.018;4.284;2022-12-18T04:39:25;47.87;;;18.40;;
18997;SDS011;9632;51.018;4.284;2022-12-18T04:41:51;49.40;;;17.90;;
18997;SDS011;9632;51.018;4.284;2022-12-18T04:44:17;50.20;;;18.20;;
18997;SDS011;9632;51.018;4.284;2022-12-18T04:46:42;49.67;;;18.60;;
18997;SDS011;9632;51.018;4.284;2022-12-18T04:49:08;46.17;;;17.50;;
18997;SDS011;9632;51.018;4.284;2022-12-18T04:51:35;48.77;;;17.83;;
18997;SDS011;9632;51.018;4.284;2022-12-18T04:54:02;48.30;;;17.37;;
18997;SDS011;9632;51.018;4.284;2022-12-18T04:56:27;48.63;;;17.77;;
18997;SDS011;9632;51.018;4.284;2022-12-18T04:58:53;48.70;;;17.90;;
18997;SDS011;9632;51.018;4.284;2022-12-18T05:01:19;48.07;;;18.00;;
18997;SDS011;9632;51.018;4.284;2022-12-18T05:03:44;51.87;;;17.50;;
18997;SDS011;9632;51.018;4.284;2022-12-18T05:06:10;52.47;;;18.40;;
18997;SDS011;9632;51.018;4.284;2022-12-18T05:08:36;47.53;;;17.63;;
18997;SDS011;9632;51.018;4.284;2022-12-18T05:11:03;49.90;;;18.10;;
18997;SDS011;9632;51.018;4.284;2022-12-18T05:13:33;46.60;;;17.13;;
18997;SDS011;9632;51.018;4.284;2022-12-18T05:16:00;47.20;;;15.80;;
18997;SDS011;9632;51.018;4.284;2022-12-18T05:18:26;48.87;;;19.03;;
18997;SDS011;9632;51.018;4.284;2022-12-18T05:20:52;47.57;;;16.90;;
18997;SDS011;9632;51.018;4.284;2022-12-18T05:23:19;51.30;;;17.77;;
18997;SDS011;9632;51.018;4.284;2022-12-18T05:25:47;47.73;;;16.97;;
18997;SDS011;9632;51.018;4.284;2022-12-18T05:28:20;48.90;;;17.53;;
18997;SDS011;9632;51.018;4.284;2022-12-18T05:30:49;46.30;;;17.90;;
18997;SDS011;9632;51.018;4.284;2022-12-18T05:33:21;48.57;;;17.70;;
18997;SDS011;9632;51.018;4.284;2022-12-18T05:35:51;49.73;;;17.93;;
18997;SDS011;9632;51.018;4.284;2022-12-18T05:38:18;51.00;;;18.13;;
18997;SDS011;9632;51.018;4.284;2022-12-18T05:40:44;52.73;;;18.00;;
18997;SDS011;9632;51.018;4.284;2022-12-18T05:43:10;45.40;;;17.07;;
18997;SDS011;9632;51.018;4.284;2022-12-18T05:45:36;48.97;;;16.57;;
18997;SDS011;9632;51.018;4.284;2022-12-18T05:48:03;47.03;;;17.60;;
18997;SDS011;9632;51.018;4.284;2022-12-18T05:50:29;47.63;;;17.63;;
18997;SDS011;9632;51.018;4.284;2022-12-18T05:52:54;43.63;;;17.03;;
18997;SDS011;9632;51.018;4.284;2022-12-18T05:55:20;49.53;;;18.00;;
18997;SDS011;9632;51.018;4.284;2022-12-18T05:57:46;48.47;;;17.30;;
18997;SDS011;9632;51.018;4.284;2022-12-18T06:00:12;45.30;;;17.50;;
18997;SDS011;9632;51.018;4.284;2022-12-18T06:02:38;40.53;;;16.23;;
18997;SDS011;9632;51.018;4.284;2022-12-18T06:05:03;46.97;;;17.67;;
18997;SDS011;9632;51.018;4.284;2022-12-18T06:07:29;43.50;;;17.17;;
18997;SDS011;9632;51.018;4.284;2022-12-18T06:09:55;45.37;;;17.00;;
18997;SDS011;9632;51.018;4.284;2022-12-18T06:12:21;46.57;;;16.10;;
18997;SDS011;9632;51.018;4.284;2022-12-18T06:14:46;50.03;;;17.60;;
18997;SDS011;9632;51.018;4.284;2022-12-18T06:17:12;45.20;;;17.13;;
18997;SDS011;9632;51.018;4.284;2022-12-18T06:19:37;43.77;;;17.47;;
18997;SDS011;9632;51.018;4.284;2022-12-18T06:22:03;46.37;;;17.53;;
18997;SDS011;9632;51.018;4.284;2022-12-18T06:24:29;48.10;;;17.57;;
18997;SDS011;9632;51.018;4.284;2022-12-18T06:26:55;43.23;;;16.90;;
18997;SDS011;9632;51.018;4.284;2022-12-18T06:29:21;45.33;;;16.93;;
18997;SDS011;9632;51.018;4.284;2022-12-18T06:31:46;49.60;;;17.20;;
18997;SDS011;9632;51.018;4.284;2022-12-18T06:34:12;44.50;;;16.93;;
18997;SDS011;9632;51.018;4.284;2022-12-18T06:36:37;43.30;;;15.90;;
18997;SDS011;9632;51.018;4.284;2022-12-18T06:39:03;46.97;;;16.90;;
18997;SDS011;9632;51.018;4.284;2022-12-18T06:41:29;45.97;;;17.20;;
18997;SDS011;9632;51.018;4.284;2022-12-18T06:43:54;43.47;;;16.27;;
18997;SDS011;9632;51.018;4.284;2022-12-18T06:46:20;46.50;;;15.73;;
18997;SDS011;9632;51.018;4.284;2022-12-18T06:48:46;43.60;;;16.47;;
18997;SDS011;9632;51.018;4.284;2022-12-18T06:51:15;43.50;;;16.90;;
18997;SDS011;9632;51.018;4.284;2022-12-18T06:53:44;44.00;;;16.57;;
18997;SDS011;9632;51.018;4.284;2022-12-18T06:56:10;47.73;;;17.10;;
18997;SDS011;9632;51.018;4.284;2022-12-18T06:58:36;41.57;;;15.43;;
18997;SDS011;9632;51.018;4.284;2022-12-18T07:01:03;45.17;;;17.03;;
18997;SDS011;9632;51.018;4.284;2022-12-18T07:03:30;45.53;;;17.47;;
18997;SDS011;9632;51.018;4.284;2022-12-18T07:05:56;43.93;;;16.53;;
18997;SDS011;9632;51.018;4.284;2022-12-18T07:08:21;46.50;;;16.73;;
18997;SDS011;9632;51.018;4.284;2022-12-18T07:10:47;39.80;;;16.03;;
18997;SDS011;9632;51.018;4.284;2022-12-18T07:13:14;44.00;;;15.63;;
18997;SDS011;9632;51.018;4.284;2022-12-18T07:15:40;44.17;;;16.13;;
18997;SDS011;9632;51.018;4.284;2022-12-18T07:18:06;41.17;;;15.83;;
18997;SDS011;9632;51.018;4.284;2022-12-18T07:20:31;40.47;;;15.37;;
18997;SDS011;9632;51.018;4.284;2022-12-18T07:22:57;43.17;;;15.20;;
18997;SDS011;9632;51.018;4.284;2022-12-18T07:25:22;40.83;;;14.73;;
18997;SDS011;9632;51.018;4.284;2022-12-18T07:27:48;43.33;;;15.60;;
18997;SDS011;9632;51.018;4.284;2022-12-18T07:30:14;44.00;;;15.20;;
18997;SDS011;9632;51.018;4.284;2022-12-18T07:32:39;39.50;;;14.57;;
18997;SDS011;9632;51.018;4.284;2022-12-18T07:35:05;40.03;;;14.80;;
18997;SDS011;9632;51.018;4.284;2022-12-18T07:37:31;38.33;;;14.20;;
18997;SDS011;9632;51.018;4.284;2022-12-18T07:39:56;41.77;;;15.43;;
18997;SDS011;9632;51.018;4.284;2022-12-18T07:42:22;40.47;;;14.90;;
18997;SDS011;9632;51.018;4.284;2022-12-18T07:44:59;44.03;;;15.50;;
18997;SDS011;9632;51.018;4.284;2022-12-18T07:47:26;36.17;;;13.67;;
18997;SDS011;9632;51.018;4.284;2022-12-18T07:49:53;38.60;;;14.80;;
18997;SDS011;9632;51.018;4.284;2022-12-18T07:52:18;37.00;;;15.20;;
18997;SDS011;9632;51.018;4.284;2022-12-18T07:54:44;39.83;;;15.43;;
18997;SDS011;9632;51.018;4.284;2022-12-18T07:57:10;36.43;;;14.60;;
18997;SDS011;9632;51.018;4.284;2022-12-18T07:59:36;39.17;;;15.53;;
18997;SDS011;9632;51.018;4.284;2022-12-18T08:02:02;42.63;;;15.63;;
18997;SDS011;9632;51.018;4.284;2022-12-18T08:04:28;41.03;;;15.20;;
18997;SDS011;9632;51.018;4.284;2022-12-18T08:06:53;39.33;;;15.20;;
18997;SDS011;9632;51.018;4.284;2022-12-18T08:09:19;38.13;;;14.93;;
18997;SDS011;9632;51.018;4.284;2022-12-18T08:11:45;41.40;;;16.33;;
18997;SDS011;9632;51.018;4.284;2022-12-18T08:14:10;37.80;;;15.60;;
18997;SDS011;9632;51.018;4.284;2022-12-18T08:16:36;42.70;;;15.43;;
18997;SDS011;9632;51.018;4.284;2022-12-18T08:19:02;40.83;;;15.07;;
18997;SDS011;9632;51.018;4.284;2022-12-18T08:21:28;39.27;;;14.60;;
18997;SDS011;9632;51.018;4.284;2022-12-18T08:23:57;35.70;;;14.43;;
18997;SDS011;9632;51.018;4.284;2022-12-18T08:26:26;39.83;;;14.40;;
18997;SDS011;9632;51.018;4.284;2022-12-18T08:28:54;40.03;;;15.20;;
18997;SDS011;9632;51.018;4.284;2022-12-18T08:31:20;38.27;;;15.10;;
18997;SDS011;9632;51.018;4.284;2022-12-18T08:33:50;36.67;;;14.70;;
18997;SDS011;9632;51.018;4.284;2022-12-18T08:36:18;41.93;;;16.33;;
18997;SDS011;9632;51.018;4.284;2022-12-18T08:38:44;41.30;;;16.37;;
18997;SDS011;9632;51.018;4.284;2022-12-18T08:41:12;49.73;;;17.03;;
18997;SDS011;9632;51.018;4.284;2022-12-18T08:43:39;42.40;;;16.27;;
18997;SDS011;9632;51.018;4.284;2022-12-18T08:46:24;43.90;;;17.40;;
18997;SDS011;9632;51.018;4.284;2022-12-18T08:48:52;42.27;;;15.47;;
18997;SDS011;9632;51.018;4.284;2022-12-18T08:51:19;42.03;;;15.83;;
18997;SDS011;9632;51.018;4.284;2022-12-18T08:53:45;42.57;;;15.73;;
18997;SDS011;9632;51.018;4.284;2022-12-18T08:56:12;43.60;;;15.47;;
18997;SDS011;9632;51.018;4.284;2022-12-18T08:58:38;38.57;;;15.20;;
18997;SDS011;9632;51.018;4.284;2022-12-18T09:01:05;40.43;;;15.70;;
18997;SDS011;9632;51.018;4.284;2022-12-18T09:03:34;41.13;;;15.77;;
18997;SDS011;9632;51.018;4.284;2022-12-18T09:06:00;36.90;;;14.77;;
18997;SDS011;9632;51.018;4.284;2022-12-18T09:08:26;37.60;;;15.50;;
18997;SDS011;9632;51.018;4.284;2022-12-18T09:10:52;36.77;;;15.30;;
18997;SDS011;9632;51.018;4.284;2022-12-18T09:13:17;44.17;;;15.57;;
18997;SDS011;9632;51.018;4.284;2022-12-18T09:15:44;44.63;;;15.63;;
18997;SDS011;9632;51.018;4.284;2022-12-18T09:18:17;38.43;;;15.20;;
18997;SDS011;9632;51.018;4.284;2022-12-18T09:20:44;42.87;;;15.57;;
18997;SDS011;9632;51.018;4.284;2022-12-18T09:23:10;41.53;;;14.47;;
18997;SDS011;9632;51.018;4.284;2022-12-18T09:25:36;40.37;;;15.80;;
18997;SDS011;9632;51.018;4.284;2022-12-18T09:28:04;35.47;;;14.60;;
18997;SDS011;9632;51.018;4.284;2022-12-18T09:30:31;39.43;;;14.57;;
18997;SDS011;9632;51.018;4.284;2022-12-18T09:33:00;46.33;;;16.57;;
18997;SDS011;9632;51.018;4.284;2022-12-18T09:35:26;39.73;;;15.07;;
18997;SDS011;9632;51.018;4.284;2022-12-18T09:37:52;35.10;;;13.97;;
18997;SDS011;9632;51.018;4.284;2022-12-18T09:40:23;36.73;;;14.80;;
18997;SDS011;9632;51.018;4.284;2022-12-18T09:42:52;31.17;;;13.13;;
18997;SDS011;9632;51.018;4.284;2022-12-18T09:45:22;33.53;;;12.93;;
18997;SDS011;9632;51.018;4.284;2022-12-18T09:47:49;32.70;;;14.10;;
18997;SDS011;9632;51.018;4.284;2022-12-18T09:53:17;36.07;;;13.63;;
18997;SDS011;9632;51.018;4.284;2022-12-18T09:55:55;32.37;;;13.80;;
18997;SDS011;9632;51.018;4.284;2022-12-18T09:58:30;31.07;;;13.53;;
18997;SDS011;9632;51.018;4.284;2022-12-18T10:01:10;29.97;;;12.50;;
18997;SDS011;9632;51.018;4.284;2022-12-18T10:03:55;33.27;;;13.50;;
18997;SDS011;9632;51.018;4.284;2022-12-18T10:06:26;33.30;;;12.57;;
18997;SDS011;9632;51.018;4.284;2022-12-18T10:11:54;35.03;;;13.17;;
18997;SDS011;9632;51.018;4.284;2022-12-18T10:17:05;28.40;;;11.87;;
18997;SDS011;9632;51.018;4.284;2022-12-18T10:19:47;35.20;;;13.50;;
18997;SDS011;9632;51.018;4.284;2022-12-18T10:27:30;33.50;;;13.53;;
18997;SDS011;9632;51.018;4.284;2022-12-18T10:29:56;31.43;;;12.80;;
18997;SDS011;9632;51.018;4.284;2022-12-18T10:32:26;29.07;;;12.67;;
18997;SDS011;9632;51.018;4.284;2022-12-18T10:34:55;29.80;;;11.47;;
18997;SDS011;9632;51.018;4.284;2022-12-18T10:37:23;27.83;;;12.10;;
18997;SDS011;9632;51.018;4.284;2022-12-18T10:40:08;30.47;;;12.97;;
18997;SDS011;9632;51.018;4.284;2022-12-18T10:42:39;33.00;;;12.70;;
18997;SDS011;9632;51.018;4.284;2022-12-18T10:45:15;34.20;;;13.00;;
18997;SDS011;9632;51.018;4.284;2022-12-18T10:47:45;30.20;;;12.50;;
18997;SDS011;9632;51.018;4.284;2022-12-18T10:50:25;30.87;;;12.43;;
18997;SDS011;9632;51.018;4.284;2022-12-18T10:52:54;31.00;;;12.67;;
18997;SDS011;9632;51.018;4.284;2022-12-18T10:55:21;30.20;;;12.33;;
18997;SDS011;9632;51.018;4.284;2022-12-18T10:57:48;31.60;;;12.47;;
18997;SDS011;9632;51.018;4.284;2022-12-18T11:00:21;33.97;;;13.43;;
18997;SDS011;9632;51.018;4.284;2022-12-18T11:02:49;28.30;;;12.03;;
18997;SDS011;9632;51.018;4.284;2022-12-18T11:05:26;30.03;;;12.70;;
18997;SDS011;9632;51.018;4.284;2022-12-18T11:07:54;27.47;;;11.90;;
18997;SDS011;9632;51.018;4.284;2022-12-18T11:10:21;26.63;;;11.13;;
18997;SDS011;9632;51.018;4.284;2022-12-18T11:12:53;28.37;;;12.47;;
18997;SDS011;9632;51.018;4.284;2022-12-18T11:15:20;30.20;;;13.03;;
18997;SDS011;9632;51.018;4.284;2022-12-18T11:17:52;28.03;;;12.23;;
18997;SDS011;9632;51.018;4.284;2022-12-18T11:22:54;30.00;;;12.57;;
18997;SDS011;9632;51.018;4.284;2022-12-18T11:25:22;27.03;;;12.00;;
18997;SDS011;9632;51.018;4.284;2022-12-18T11:27:49;31.03;;;12.60;;
18997;SDS011;9632;51.018;4.284;2022-12-18T11:30:27;33.70;;;13.00;;
18997;SDS011;9632;51.018;4.284;2022-12-18T11:38:24;33.33;;;13.57;;
18997;SDS011;9632;51.018;4.284;2022-12-18T11:41:09;31.70;;;13.47;;
18997;SDS011;9632;51.018;4.284;2022-12-18T11:44:19;27.63;;;12.73;;
18997;SDS011;9632;51.018;4.284;2022-12-18T11:46:51;33.90;;;13.23;;
18997;SDS011;9632;51.018;4.284;2022-12-18T11:49:24;31.30;;;13.67;;
18997;SDS011;9632;51.018;4.284;2022-12-18T11:52:04;31.00;;;12.40;;
18997;SDS011;9632;51.018;4.284;2022-12-18T11:54:41;29.93;;;13.17;;
18997;SDS011;9632;51.018;4.284;2022-12-18T12:00:11;33.33;;;14.13;;
18997;SDS011;9632;51.018;4.284;2022-12-18T12:05:34;30.20;;;14.00;;
18997;SDS011;9632;51.018;4.284;2022-12-18T12:14:12;31.30;;;14.57;;
18997;SDS011;9632;51.018;4.284;2022-12-18T12:17:24;34.20;;;14.63;;
18997;SDS011;9632;51.018;4.284;2022-12-18T12:30:32;33.13;;;14.00;;
18997;SDS011;9632;51.018;4.284;2022-12-18T12:38:45;36.30;;;14.97;;
18997;SDS011;9632;51.018;4.284;2022-12-18T12:41:17;34.30;;;15.30;;
18997;SDS011;9632;51.018;4.284;2022-12-18T12:44:07;41.50;;;16.00;;
18997;SDS011;9632;51.018;4.284;2022-12-18T12:46:39;33.33;;;15.30;;
18997;SDS011;9632;51.018;4.284;2022-12-18T12:49:11;33.47;;;15.13;;
18997;SDS011;9632;51.018;4.284;2022-12-18T12:51:43;32.77;;;14.67;;
18997;SDS011;9632;51.018;4.284;2022-12-18T12:54:30;33.77;;;15.07;;
18997;SDS011;9632;51.018;4.284;2022-12-18T12:57:19;34.27;;;15.33;;
18997;SDS011;9632;51.018;4.284;2022-12-18T13:00:00;35.50;;;15.53;;
18997;SDS011;9632;51.018;4.284;2022-12-18T13:08:12;33.83;;;14.97;;
18997;SDS011;9632;51.018;4.284;2022-12-18T13:10:59;33.70;;;14.97;;
18997;SDS011;9632;51.018;4.284;2022-12-18T13:13:53;30.87;;;14.10;;
18997;SDS011;9632;51.018;4.284;2022-12-18T13:16:21;34.20;;;15.30;;
18997;SDS011;9632;51.018;4.284;2022-12-18T13:18:50;35.23;;;15.07;;
18997;SDS011;9632;51.018;4.284;2022-12-18T13:21:23;31.50;;;14.10;;
18997;SDS011;9632;51.018;4.284;2022-12-18T13:23:53;31.00;;;14.37;;
18997;SDS011;9632;51.018;4.284;2022-12-18T13:31:14;32.50;;;14.53;;
18997;SDS011;9632;51.018;4.284;2022-12-18T13:34:11;30.70;;;14.30;;
18997;SDS011;9632;51.018;4.284;2022-12-18T13:36:41;32.03;;;14.57;;
18997;SDS011;9632;51.018;4.284;2022-12-18T13:41:39;33.97;;;15.00;;
18997;SDS011;9632;51.018;4.284;2022-12-18T13:44:13;38.40;;;15.67;;
18997;SDS011;9632;51.018;4.284;2022-12-18T13:46:43;31.13;;;14.13;;
18997;SDS011;9632;51.018;4.284;2022-12-18T13:51:40;37.83;;;16.37;;
18997;SDS011;9632;51.018;4.284;2022-12-18T13:54:19;40.80;;;17.20;;
18997;SDS011;9632;51.018;4.284;2022-12-18T13:56:45;40.90;;;18.33;;
18997;SDS011;9632;51.018;4.284;2022-12-18T13:59:20;46.50;;;20.20;;
18997;SDS011;9632;51.018;4.284;2022-12-18T14:01:57;49.50;;;20.57;;
18997;SDS011;9632;51.018;4.284;2022-12-18T14:06:53;46.93;;;20.93;;
18997;SDS011;9632;51.018;4.284;2022-12-18T14:09:44;47.30;;;20.70;;
18997;SDS011;9632;51.018;4.284;2022-12-18T14:12:18;45.70;;;19.73;;
18997;SDS011;9632;51.018;4.284;2022-12-18T14:15:25;42.20;;;17.90;;
18997;SDS011;9632;51.018;4.284;2022-12-18T14:18:00;39.33;;;16.90;;
18997;SDS011;9632;51.018;4.284;2022-12-18T14:20:28;39.50;;;16.80;;
18997;SDS011;9632;51.018;4.284;2022-12-18T14:22:56;45.27;;;18.20;;
18997;SDS011;9632;51.018;4.284;2022-12-18T14:25:26;43.20;;;17.47;;
18997;SDS011;9632;51.018;4.284;2022-12-18T14:28:04;39.50;;;16.30;;
18997;SDS011;9632;51.018;4.284;2022-12-18T14:30:37;40.03;;;16.30;;
18997;SDS011;9632;51.018;4.284;2022-12-18T14:35:34;46.67;;;16.13;;
18997;SDS011;9632;51.018;4.284;2022-12-18T14:38:37;39.13;;;16.50;;
18997;SDS011;9632;51.018;4.284;2022-12-18T14:41:02;41.70;;;18.07;;
18997;SDS011;9632;51.018;4.284;2022-12-18T14:43:33;44.03;;;18.60;;
18997;SDS011;9632;51.018;4.284;2022-12-18T14:46:00;47.00;;;18.67;;
18997;SDS011;9632;51.018;4.284;2022-12-18T14:53:43;44.77;;;17.73;;
18997;SDS011;9632;51.018;4.284;2022-12-18T14:56:13;41.23;;;16.40;;
18997;SDS011;9632;51.018;4.284;2022-12-18T14:58:48;46.93;;;18.40;;
18997;SDS011;9632;51.018;4.284;2022-12-18T15:01:26;40.13;;;17.17;;
18997;SDS011;9632;51.018;4.284;2022-12-18T15:03:58;45.17;;;17.73;;
18997;SDS011;9632;51.018;4.284;2022-12-18T15:06:29;43.07;;;17.60;;
18997;SDS011;9632;51.018;4.284;2022-12-18T15:08:57;43.73;;;18.00;;
18997;SDS011;9632;51.018;4.284;2022-12-18T15:11:45;45.40;;;18.83;;
18997;SDS011;9632;51.018;4.284;2022-12-18T15:16:57;41.10;;;16.63;;
18997;SDS011;9632;51.018;4.284;2022-12-18T15:19:32;37.67;;;17.37;;
18997;SDS011;9632;51.018;4.284;2022-12-18T15:21:58;45.47;;;17.20;;
18997;SDS011;9632;51.018;4.284;2022-12-18T15:24:26;45.50;;;16.63;;
18997;SDS011;9632;51.018;4.284;2022-12-18T15:26:55;40.67;;;17.33;;
18997;SDS011;9632;51.018;4.284;2022-12-18T15:29:21;39.80;;;17.33;;
18997;SDS011;9632;51.018;4.284;2022-12-18T15:32:00;42.10;;;17.20;;
18997;SDS011;9632;51.018;4.284;2022-12-18T15:34:27;44.20;;;17.73;;
18997;SDS011;9632;51.018;4.284;2022-12-18T15:36:53;46.37;;;16.97;;
18997;SDS011;9632;51.018;4.284;2022-12-18T15:39:19;42.87;;;16.63;;
18997;SDS011;9632;51.018;4.284;2022-12-18T15:41:45;43.60;;;17.60;;
18997;SDS011;9632;51.018;4.284;2022-12-18T15:44:29;46.27;;;18.33;;
18997;SDS011;9632;51.018;4.284;2022-12-18T15:46:55;45.33;;;18.13;;
18997;SDS011;9632;51.018;4.284;2022-12-18T15:49:21;42.90;;;17.63;;
18997;SDS011;9632;51.018;4.284;2022-12-18T15:51:57;45.57;;;18.13;;
18997;SDS011;9632;51.018;4.284;2022-12-18T15:54:24;46.40;;;17.83;;
18997;SDS011;9632;51.018;4.284;2022-12-18T15:57:11;42.73;;;17.97;;
18997;SDS011;9632;51.018;4.284;2022-12-18T15:59:51;49.47;;;18.23;;
18997;SDS011;9632;51.018;4.284;2022-12-18T16:02:18;44.53;;;18.60;;
18997;SDS011;9632;51.018;4.284;2022-12-18T16:04:45;46.60;;;18.83;;
18997;SDS011;9632;51.018;4.284;2022-12-18T16:07:11;43.73;;;17.70;;
18997;SDS011;9632;51.018;4.284;2022-12-18T16:09:37;41.73;;;16.93;;
18997;SDS011;9632;51.018;4.284;2022-12-18T16:12:03;40.00;;;16.77;;
18997;SDS011;9632;51.018;4.284;2022-12-18T16:14:31;43.33;;;17.70;;
18997;SDS011;9632;51.018;4.284;2022-12-18T16:16:58;40.43;;;16.37;;
18997;SDS011;9632;51.018;4.284;2022-12-18T16:19:25;41.53;;;16.97;;
18997;SDS011;9632;51.018;4.284;2022-12-18T16:21:52;48.67;;;18.80;;
18997;SDS011;9632;51.018;4.284;2022-12-18T16:24:23;44.63;;;18.93;;